createdAt,value
2022-10-31T00:00:01.308Z,14.3
2022-10-31T00:01:01.877Z,14.3
2022-10-31T00:02:01.482Z,14.4
2022-10-31T00:03:02.353Z,14.3
2022-10-31T00:04:01.715Z,14.3
2022-10-31T00:05:01.245Z,14.3
2022-10-31T00:06:01.817Z,14.3
2022-10-31T00:07:01.418Z,14.2
2022-10-31T00:08:01.980Z,14.3
2022-10-31T00:09:01.578Z,14.3
2022-10-31T00:10:02.124Z,14.3
2022-10-31T00:11:01.700Z,14.3
2022-10-31T00:12:01.298Z,14.2
2022-10-31T00:13:02.009Z,14.2
2022-10-31T00:14:01.523Z,14.2
2022-10-31T00:15:02.106Z,14.2
2022-10-31T00:16:01.680Z,14.2
2022-10-31T00:17:01.273Z,14.2
2022-10-31T00:18:02.107Z,14.2
2022-10-31T00:19:01.494Z,14.3
2022-10-31T00:20:02.071Z,14.3
2022-10-31T00:21:01.650Z,14.3
2022-10-31T00:22:01.304Z,14.3
2022-10-31T00:23:01.836Z,14.3
2022-10-31T00:24:01.426Z,14.3
2022-10-31T00:25:01.981Z,14.4
2022-10-31T00:26:01.554Z,14.3
2022-10-31T00:27:02.151Z,14.3
2022-10-31T00:28:02.116Z,14.4
2022-10-31T00:29:01.985Z,14.5
2022-10-31T00:30:01.599Z,14.5
2022-10-31T00:31:02.186Z,14.5
2022-10-31T00:32:01.761Z,14.5
2022-10-31T00:33:01.789Z,14.5
2022-10-31T00:34:01.534Z,14.5
2022-10-31T00:35:02.123Z,14.5
2022-10-31T00:36:01.734Z,14.6
2022-10-31T00:37:01.307Z,14.6
2022-10-31T00:38:01.896Z,14.6
2022-10-31T00:39:01.511Z,14.5
2022-10-31T00:40:02.058Z,14.5
2022-10-31T00:41:01.632Z,14.6
2022-10-31T00:42:01.205Z,14.5
2022-10-31T00:43:02.256Z,14.5
2022-10-31T00:44:02.151Z,14.4
2022-10-31T00:45:01.728Z,14.3
2022-10-31T00:46:01.306Z,14.2
2022-10-31T00:47:01.879Z,14.3
2022-10-31T00:48:01.804Z,14.3
2022-10-31T00:49:02.041Z,14.3
2022-10-31T00:50:01.627Z,14.3
2022-10-31T00:51:02.198Z,14.2
2022-10-31T00:52:01.792Z,14.2
2022-10-31T00:53:01.365Z,14.2
2022-10-31T00:54:01.938Z,14.2
2022-10-31T00:55:01.555Z,14.2
2022-10-31T00:56:02.099Z,14.1
2022-10-31T00:57:01.695Z,14.1
2022-10-31T00:58:01.661Z,14.1
2022-10-31T00:59:01.441Z,14.1
2022-10-31T01:00:02.022Z,13.9
2022-10-31T01:01:01.690Z,13.9
2022-10-31T01:02:02.310Z,13.9
2022-10-31T01:03:02.282Z,13.9
2022-10-31T01:04:01.973Z,13.9
2022-10-31T01:05:01.554Z,14
2022-10-31T01:06:02.160Z,14
2022-10-31T01:07:01.246Z,13.9
2022-10-31T01:08:01.832Z,13.8
2022-10-31T01:09:01.408Z,13.7
2022-10-31T01:10:01.994Z,13.7
2022-10-31T01:11:01.623Z,13.7
2022-10-31T01:12:02.178Z,13.8
2022-10-31T01:13:02.054Z,13.8
2022-10-31T01:14:01.387Z,13.8
2022-10-31T01:15:01.964Z,13.8
2022-10-31T01:16:01.538Z,13.9
2022-10-31T01:17:02.134Z,13.8
2022-10-31T01:18:01.890Z,13.9
2022-10-31T01:19:01.807Z,13.9
2022-10-31T01:20:01.385Z,13.9
2022-10-31T01:21:01.961Z,13.9
2022-10-31T01:22:01.710Z,13.9
2022-10-31T01:23:01.287Z,13.9
2022-10-31T01:24:00.874Z,13.8
2022-10-31T01:25:01.446Z,13.8
2022-10-31T01:26:01.018Z,13.7
2022-10-31T01:27:01.614Z,13.7
2022-10-31T01:28:01.401Z,13.7
2022-10-31T01:29:00.781Z,13.7
2022-10-31T01:30:01.354Z,13.7
2022-10-31T01:31:00.933Z,13.8
2022-10-31T01:32:01.501Z,13.7
2022-10-31T01:33:01.360Z,13.8
2022-10-31T01:34:01.677Z,13.8
2022-10-31T01:35:01.251Z,13.7
2022-10-31T01:36:00.880Z,13.7
2022-10-31T01:37:01.459Z,13.7
2022-10-31T01:38:01.034Z,13.7
2022-10-31T01:39:01.621Z,13.6
2022-10-31T01:40:01.193Z,13.6
2022-10-31T01:41:00.770Z,13.7
2022-10-31T01:42:01.343Z,13.6
2022-10-31T01:43:01.309Z,13.6
2022-10-31T01:44:01.210Z,13.6
2022-10-31T01:45:00.786Z,13.7
2022-10-31T01:46:01.359Z,13.7
2022-10-31T01:47:00.933Z,13.7
2022-10-31T01:48:01.792Z,13.8
2022-10-31T01:49:01.182Z,13.8
2022-10-31T01:50:00.770Z,13.8
2022-10-31T01:51:01.336Z,13.8
2022-10-31T01:52:00.913Z,13.8
2022-10-31T01:53:01.487Z,13.9
2022-10-31T01:54:01.077Z,13.8
2022-10-31T01:55:01.635Z,13.8
2022-10-31T01:56:01.208Z,13.8
2022-10-31T01:57:00.810Z,13.8
2022-10-31T01:58:01.767Z,13.8
2022-10-31T01:59:01.651Z,13.8
2022-10-31T02:00:01.229Z,13.7
2022-10-31T02:01:03.216Z,13.7
2022-10-31T02:02:01.515Z,13.8
2022-10-31T02:03:01.400Z,13.8
2022-10-31T02:04:01.630Z,13.8
2022-10-31T02:05:01.204Z,13.9
2022-10-31T02:06:00.794Z,13.9
2022-10-31T02:07:01.362Z,13.9
2022-10-31T02:08:00.938Z,13.9
2022-10-31T02:09:01.515Z,13.9
2022-10-31T02:10:01.090Z,14
2022-10-31T02:11:01.681Z,14
2022-10-31T02:12:01.270Z,14
2022-10-31T02:13:01.318Z,14.1
2022-10-31T02:14:01.029Z,14.1
2022-10-31T02:15:01.653Z,14.1
2022-10-31T02:16:01.267Z,14.1
2022-10-31T02:17:00.856Z,14.1
2022-10-31T02:18:01.784Z,14.1
2022-10-31T02:19:01.082Z,14.1
2022-10-31T02:20:01.652Z,14.2
2022-10-31T02:21:01.246Z,14.1
2022-10-31T02:22:00.821Z,14
2022-10-31T02:23:01.436Z,13.9
2022-10-31T02:24:01.011Z,13.9
2022-10-31T02:25:01.585Z,13.8
2022-10-31T02:26:01.175Z,13.9
2022-10-31T02:27:00.748Z,13.8
2022-10-31T02:28:01.833Z,13.8
2022-10-31T02:29:01.593Z,13.7
2022-10-31T02:30:01.169Z,13.7
2022-10-31T02:31:00.769Z,13.6
2022-10-31T02:32:01.335Z,13.6
2022-10-31T02:33:01.170Z,13.5
2022-10-31T02:34:01.497Z,13.6
2022-10-31T02:35:01.072Z,13.6
2022-10-31T02:36:01.641Z,13.6
2022-10-31T02:37:01.233Z,13.6
2022-10-31T02:38:00.827Z,13.5
2022-10-31T02:39:01.382Z,13.4
2022-10-31T02:40:00.959Z,13.3
2022-10-31T02:41:01.535Z,13.3
2022-10-31T02:42:01.112Z,13.3
2022-10-31T02:43:02.234Z,13.2
2022-10-31T02:44:00.992Z,13.1
2022-10-31T02:45:01.585Z,13.1
2022-10-31T02:46:01.160Z,13.1
2022-10-31T02:47:00.757Z,13
2022-10-31T02:48:01.705Z,13
2022-10-31T02:49:00.978Z,12.9
2022-10-31T02:50:01.563Z,12.9
2022-10-31T02:51:01.140Z,12.8
2022-10-31T02:52:00.714Z,12.8
2022-10-31T02:53:01.299Z,12.7
2022-10-31T02:54:00.874Z,12.7
2022-10-31T02:55:01.449Z,12.7
2022-10-31T02:56:01.023Z,12.6
2022-10-31T02:57:01.597Z,12.6
2022-10-31T02:58:01.619Z,12.7
2022-10-31T02:59:01.564Z,12.7
2022-10-31T03:00:01.155Z,12.8
2022-10-31T03:01:00.813Z,12.8
2022-10-31T03:02:01.630Z,12.9
2022-10-31T03:03:01.423Z,12.9
2022-10-31T03:04:01.094Z,13
2022-10-31T03:05:01.677Z,12.9
2022-10-31T03:06:00.807Z,13
2022-10-31T03:07:01.384Z,13.1
2022-10-31T03:08:00.974Z,13.1
2022-10-31T03:09:01.560Z,13.1
2022-10-31T03:10:01.151Z,13
2022-10-31T03:11:00.713Z,12.9
2022-10-31T03:12:01.299Z,12.8
2022-10-31T03:13:01.199Z,12.8
2022-10-31T03:14:01.046Z,12.8
2022-10-31T03:15:01.638Z,12.8
2022-10-31T03:16:01.212Z,12.8
2022-10-31T03:17:00.782Z,12.8
2022-10-31T03:18:01.612Z,12.7
2022-10-31T03:19:01.056Z,12.8
2022-10-31T03:20:01.618Z,12.8
2022-10-31T03:21:01.193Z,12.8
2022-10-31T03:22:00.768Z,12.8
2022-10-31T03:23:01.344Z,12.8
2022-10-31T03:24:00.974Z,12.8
2022-10-31T03:25:01.507Z,12.8
2022-10-31T03:26:01.078Z,12.9
2022-10-31T03:27:01.654Z,12.9
2022-10-31T03:28:01.586Z,12.8
2022-10-31T03:29:01.409Z,12.8
2022-10-31T03:30:00.999Z,12.8
2022-10-31T03:31:03.448Z,12.8
2022-10-31T03:32:01.112Z,12.8
2022-10-31T03:33:01.548Z,12.8
2022-10-31T03:34:00.937Z,12.8
2022-10-31T03:35:01.549Z,12.8
2022-10-31T03:36:01.125Z,12.8
2022-10-31T03:37:01.697Z,12.7
2022-10-31T03:38:04.102Z,12.7
2022-10-31T03:39:00.805Z,12.7
2022-10-31T03:40:01.405Z,12.6
2022-10-31T03:41:00.997Z,12.6
2022-10-31T03:42:01.572Z,12.6
2022-10-31T03:43:01.590Z,12.6
2022-10-31T03:44:01.445Z,12.5
2022-10-31T03:45:01.034Z,12.5
2022-10-31T03:46:01.607Z,12.4
2022-10-31T03:47:01.178Z,12.4
2022-10-31T03:48:00.936Z,12.3
2022-10-31T03:49:00.850Z,12.3
2022-10-31T03:50:01.444Z,12.3
2022-10-31T03:51:01.605Z,12.3
2022-10-31T03:52:01.177Z,12.3
2022-10-31T03:53:00.749Z,12.3
2022-10-31T03:54:01.322Z,12.4
2022-10-31T03:55:00.913Z,12.3
2022-10-31T03:56:01.499Z,12.3
2022-10-31T03:57:01.098Z,12.3
2022-10-31T03:58:02.111Z,12.3
2022-10-31T03:59:00.947Z,12.3
2022-10-31T04:00:01.521Z,12.2
2022-10-31T04:01:01.114Z,12.2
2022-10-31T04:02:01.852Z,12.1
2022-10-31T04:03:01.740Z,12.1
2022-10-31T04:04:01.575Z,12
2022-10-31T04:05:01.153Z,12
2022-10-31T04:06:00.752Z,12
2022-10-31T04:07:01.342Z,12
2022-10-31T04:08:00.915Z,12
2022-10-31T04:09:01.489Z,12
2022-10-31T04:10:01.068Z,12
2022-10-31T04:11:01.660Z,12
2022-10-31T04:12:01.235Z,12
2022-10-31T04:13:01.296Z,12
2022-10-31T04:14:01.112Z,11.9
2022-10-31T04:15:01.690Z,11.8
2022-10-31T04:16:01.280Z,11.8
2022-10-31T04:17:00.852Z,11.8
2022-10-31T04:18:01.845Z,11.8
2022-10-31T04:19:01.690Z,11.7
2022-10-31T04:20:01.268Z,11.7
2022-10-31T04:21:00.875Z,11.7
2022-10-31T04:22:01.452Z,11.7
2022-10-31T04:23:01.050Z,11.8
2022-10-31T04:24:01.640Z,11.7
2022-10-31T04:25:01.217Z,11.7
2022-10-31T04:26:00.813Z,11.7
2022-10-31T04:27:01.375Z,11.7
2022-10-31T04:28:01.284Z,11.7
2022-10-31T04:29:01.066Z,11.7
2022-10-31T04:30:01.643Z,11.7
2022-10-31T04:31:00.789Z,11.7
2022-10-31T04:32:01.375Z,11.6
2022-10-31T04:33:01.245Z,11.6
2022-10-31T04:34:01.114Z,11.6
2022-10-31T04:35:01.691Z,11.5
2022-10-31T04:36:00.776Z,11.4
2022-10-31T04:37:01.371Z,11.4
2022-10-31T04:38:00.946Z,11.4
2022-10-31T04:39:01.559Z,11.4
2022-10-31T04:40:01.139Z,11.3
2022-10-31T04:41:00.716Z,11.3
2022-10-31T04:42:01.311Z,11.2
2022-10-31T04:43:01.168Z,11.3
2022-10-31T04:44:01.471Z,11.4
2022-10-31T04:45:01.054Z,11.4
2022-10-31T04:46:01.635Z,11.4
2022-10-31T04:47:01.229Z,11.5
2022-10-31T04:48:01.025Z,11.3
2022-10-31T04:49:01.390Z,11.4
2022-10-31T04:50:00.967Z,11.5
2022-10-31T04:51:01.559Z,11.4
2022-10-31T04:52:01.157Z,11.5
2022-10-31T04:53:00.724Z,11.4
2022-10-31T04:54:01.319Z,11.4
2022-10-31T04:55:00.915Z,11.3
2022-10-31T04:56:01.480Z,11.3
2022-10-31T04:57:01.057Z,11.3
2022-10-31T04:58:01.956Z,11.3
2022-10-31T04:59:00.788Z,11.3
2022-10-31T05:00:01.361Z,11.3
2022-10-31T05:01:01.491Z,11.2
2022-10-31T05:02:01.253Z,11.3
2022-10-31T05:03:01.915Z,11.3
2022-10-31T05:04:01.725Z,11.2
2022-10-31T05:05:00.902Z,11.2
2022-10-31T05:06:01.482Z,11.2
2022-10-31T05:07:01.057Z,11.2
2022-10-31T05:08:01.629Z,11.1
2022-10-31T05:09:01.222Z,11.1
2022-10-31T05:10:00.797Z,11.1
2022-10-31T05:11:03.202Z,11.1
2022-10-31T05:12:00.914Z,11.1
2022-10-31T05:13:02.039Z,11.1
2022-10-31T05:14:00.855Z,11.1
2022-10-31T05:15:01.436Z,11.1
2022-10-31T05:16:01.027Z,11.1
2022-10-31T05:17:01.594Z,11.1
2022-10-31T05:18:01.472Z,11.1
2022-10-31T05:19:00.755Z,11.1
2022-10-31T05:20:01.331Z,11.1
2022-10-31T05:21:00.924Z,11
2022-10-31T05:22:01.480Z,11.1
2022-10-31T05:23:01.057Z,11.1
2022-10-31T05:24:01.627Z,11.1
2022-10-31T05:25:01.250Z,11
2022-10-31T05:26:00.793Z,11
2022-10-31T05:27:01.378Z,10.9
2022-10-31T05:28:01.271Z,10.9
2022-10-31T05:29:01.540Z,10.9
2022-10-31T05:30:01.204Z,10.9
2022-10-31T05:31:01.709Z,10.8
2022-10-31T05:32:01.300Z,10.8
2022-10-31T05:33:00.973Z,10.8
2022-10-31T05:34:01.460Z,10.8
2022-10-31T05:35:01.035Z,10.8
2022-10-31T05:36:01.607Z,10.8
2022-10-31T05:37:01.199Z,10.7
2022-10-31T05:38:00.787Z,10.7
2022-10-31T05:39:01.351Z,10.7
2022-10-31T05:40:03.776Z,10.7
2022-10-31T05:41:01.461Z,10.7
2022-10-31T05:42:01.033Z,10.8
2022-10-31T05:43:01.965Z,10.8
2022-10-31T05:44:00.787Z,10.8
2022-10-31T05:45:01.358Z,10.8
2022-10-31T05:46:00.954Z,10.8
2022-10-31T05:47:01.534Z,10.8
2022-10-31T05:48:01.324Z,10.7
2022-10-31T05:49:02.788Z,10.7
2022-10-31T05:50:01.603Z,10.7
2022-10-31T05:51:00.942Z,10.7
2022-10-31T05:52:01.515Z,10.7
2022-10-31T05:53:01.107Z,10.7
2022-10-31T05:54:01.673Z,10.7
2022-10-31T05:55:01.267Z,10.6
2022-10-31T05:56:00.843Z,10.6
2022-10-31T05:57:01.417Z,10.7
2022-10-31T05:58:01.317Z,10.7
2022-10-31T05:59:01.589Z,10.6
2022-10-31T06:00:01.176Z,10.7
2022-10-31T06:01:00.737Z,10.7
2022-10-31T06:02:01.311Z,10.7
2022-10-31T06:03:00.984Z,10.8
2022-10-31T06:04:01.473Z,10.8
2022-10-31T06:05:01.107Z,10.8
2022-10-31T06:06:01.654Z,10.8
2022-10-31T06:07:01.230Z,10.8
2022-10-31T06:08:01.125Z,10.8
2022-10-31T06:09:01.382Z,10.8
2022-10-31T06:10:00.959Z,10.8
2022-10-31T06:11:01.555Z,10.8
2022-10-31T06:12:01.133Z,10.8
2022-10-31T06:13:01.705Z,10.8
2022-10-31T06:14:01.278Z,10.9
2022-10-31T06:15:00.876Z,10.8
2022-10-31T06:16:01.445Z,10.8
2022-10-31T06:17:01.020Z,10.8
2022-10-31T06:18:01.970Z,10.6
2022-10-31T06:19:00.781Z,10.7
2022-10-31T06:20:01.358Z,10.6
2022-10-31T06:21:00.965Z,10.8
2022-10-31T06:22:01.534Z,10.8
2022-10-31T06:23:01.457Z,10.8
2022-10-31T06:24:01.220Z,10.8
2022-10-31T06:25:00.796Z,10.8
2022-10-31T06:26:01.437Z,10.8
2022-10-31T06:27:01.056Z,10.8
2022-10-31T06:28:01.632Z,10.9
2022-10-31T06:29:03.014Z,10.8
2022-10-31T06:30:01.287Z,10.8
2022-10-31T06:31:00.884Z,10.9
2022-10-31T06:32:01.449Z,10.9
2022-10-31T06:33:01.417Z,10.9
2022-10-31T06:34:01.166Z,10.9
2022-10-31T06:35:00.744Z,10.9
2022-10-31T06:36:01.320Z,10.9
2022-10-31T06:37:01.445Z,10.9
2022-10-31T06:38:01.337Z,10.9
2022-10-31T06:39:01.608Z,10.9
2022-10-31T06:40:01.181Z,10.9
2022-10-31T06:41:00.760Z,10.9
2022-10-31T06:42:01.346Z,10.8
2022-10-31T06:43:00.923Z,10.8
2022-10-31T06:44:03.517Z,10.9
2022-10-31T06:45:01.032Z,10.9
2022-10-31T06:46:01.611Z,11
2022-10-31T06:47:01.230Z,11
2022-10-31T06:48:17.875Z,11.1
2022-10-31T06:49:01.306Z,11.3
2022-10-31T06:50:00.883Z,11.3
2022-10-31T06:51:01.455Z,11.3
2022-10-31T06:52:01.051Z,11.4
2022-10-31T06:53:01.658Z,11.4
2022-10-31T06:54:01.255Z,11.5
2022-10-31T06:55:00.831Z,11.4
2022-10-31T06:56:01.406Z,11.4
2022-10-31T06:57:00.980Z,11.4
2022-10-31T06:58:02.831Z,11.3
2022-10-31T06:59:00.947Z,11.4
2022-10-31T07:00:01.519Z,11.4
2022-10-31T07:01:01.129Z,11.4
2022-10-31T07:02:01.901Z,11.4
2022-10-31T07:03:01.586Z,11.5
2022-10-31T07:04:00.928Z,11.6
2022-10-31T07:05:01.508Z,11.5
2022-10-31T07:06:01.080Z,11.5
2022-10-31T07:07:01.656Z,11.6
2022-10-31T07:08:01.521Z,11.5
2022-10-31T07:09:00.900Z,11.6
2022-10-31T07:10:01.521Z,11.5
2022-10-31T07:11:01.130Z,11.6
2022-10-31T07:12:01.702Z,11.6
2022-10-31T07:13:01.647Z,11.7
2022-10-31T07:14:00.950Z,11.8
2022-10-31T07:15:01.525Z,11.8
2022-10-31T07:16:01.104Z,11.8
2022-10-31T07:17:01.682Z,11.9
2022-10-31T07:18:01.273Z,11.9
2022-10-31T07:19:00.889Z,11.9
2022-10-31T07:20:01.430Z,11.9
2022-10-31T07:21:01.003Z,11.9
2022-10-31T07:22:01.576Z,11.9
2022-10-31T07:23:01.507Z,11.8
2022-10-31T07:24:01.314Z,11.8
2022-10-31T07:25:00.889Z,11.8
2022-10-31T07:26:01.517Z,11.7
2022-10-31T07:27:01.097Z,11.7
2022-10-31T07:28:02.150Z,11.7
2022-10-31T07:29:00.871Z,11.7
2022-10-31T07:30:01.449Z,11.8
2022-10-31T07:31:01.054Z,11.8
2022-10-31T07:32:01.611Z,11.8
2022-10-31T07:33:01.187Z,11.8
2022-10-31T07:34:00.772Z,11.8
2022-10-31T07:35:01.371Z,11.9
2022-10-31T07:36:00.963Z,11.9
2022-10-31T07:37:01.534Z,12
2022-10-31T07:38:01.453Z,12.1
2022-10-31T07:39:01.226Z,12.1
2022-10-31T07:40:00.800Z,12.2
2022-10-31T07:41:01.391Z,12.2
2022-10-31T07:42:01.524Z,12.3
2022-10-31T07:43:01.103Z,12.2
2022-10-31T07:44:01.677Z,12.3
2022-10-31T07:45:01.252Z,12.2
2022-10-31T07:46:00.843Z,12.3
2022-10-31T07:47:01.399Z,12.3
2022-10-31T07:48:01.306Z,12.3
2022-10-31T07:49:01.547Z,12.3
2022-10-31T07:50:01.120Z,12.4
2022-10-31T07:51:01.744Z,12.5
2022-10-31T07:52:01.319Z,12.5
2022-10-31T07:53:00.894Z,12.5
2022-10-31T07:54:01.478Z,12.5
2022-10-31T07:55:01.053Z,12.5
2022-10-31T07:56:01.734Z,12.5
2022-10-31T07:57:01.291Z,12.5
2022-10-31T07:58:01.148Z,12.4
2022-10-31T07:59:01.434Z,12.4
2022-10-31T08:00:01.008Z,12.4
2022-10-31T08:01:01.778Z,12.4
2022-10-31T08:02:01.256Z,12.4
2022-10-31T08:03:01.020Z,12.5
2022-10-31T08:04:01.397Z,12.6
2022-10-31T08:05:01.340Z,12.7
2022-10-31T08:06:01.230Z,12.7
2022-10-31T08:07:00.844Z,12.7
2022-10-31T08:08:01.627Z,12.8
2022-10-31T08:09:01.049Z,12.8
2022-10-31T08:10:01.625Z,12.8
2022-10-31T08:11:01.203Z,12.8
2022-10-31T08:12:00.792Z,12.9
2022-10-31T08:13:01.363Z,12.9
2022-10-31T08:14:00.940Z,12.9
2022-10-31T08:15:01.513Z,12.9
2022-10-31T08:16:01.104Z,12.9
2022-10-31T08:17:01.662Z,13
2022-10-31T08:18:01.578Z,13.1
2022-10-31T08:19:00.904Z,13.1
2022-10-31T08:20:01.479Z,13.2
2022-10-31T08:21:01.060Z,13.2
2022-10-31T08:22:01.634Z,13.1
2022-10-31T08:23:01.266Z,13.2
2022-10-31T08:24:00.793Z,13.2
2022-10-31T08:25:01.367Z,13.2
2022-10-31T08:26:00.942Z,13.3
2022-10-31T08:27:01.562Z,13.3
2022-10-31T08:28:01.453Z,13.3
2022-10-31T08:29:01.248Z,13.3
2022-10-31T08:30:00.836Z,13.3
2022-10-31T08:31:01.410Z,13.3
2022-10-31T08:32:01.532Z,13.3
2022-10-31T08:33:01.122Z,13.3
2022-10-31T08:34:01.693Z,13.4
2022-10-31T08:35:01.287Z,13.4
2022-10-31T08:36:00.877Z,13.5
2022-10-31T08:37:01.444Z,13.5
2022-10-31T08:38:01.348Z,13.5
2022-10-31T08:39:02.307Z,13.5
2022-10-31T08:40:00.982Z,13.6
2022-10-31T08:41:01.564Z,13.6
2022-10-31T08:42:01.141Z,13.6
2022-10-31T08:43:01.717Z,13.6
2022-10-31T08:44:01.293Z,13.6
2022-10-31T08:45:00.887Z,13.6
2022-10-31T08:46:01.440Z,13.6
2022-10-31T08:47:01.013Z,13.7
2022-10-31T08:48:02.021Z,13.7
2022-10-31T08:49:00.764Z,13.8
2022-10-31T08:50:01.359Z,13.8
2022-10-31T08:51:00.961Z,13.7
2022-10-31T08:52:01.515Z,13.7
2022-10-31T08:53:05.032Z,13.8
2022-10-31T08:54:01.629Z,13.8
2022-10-31T08:55:01.256Z,13.8
2022-10-31T08:56:00.886Z,13.9
2022-10-31T08:57:01.437Z,13.9
2022-10-31T08:58:01.234Z,14
2022-10-31T08:59:01.594Z,14.1
2022-10-31T09:00:01.166Z,14.2
2022-10-31T09:01:00.854Z,14.3
2022-10-31T09:02:01.392Z,14.2
2022-10-31T09:03:00.984Z,14.3
2022-10-31T09:04:01.559Z,14.3
2022-10-31T09:05:01.134Z,14.3
2022-10-31T09:06:01.813Z,14.3
2022-10-31T09:07:19.975Z,14.3
2022-10-31T09:08:01.437Z,14.3
2022-10-31T09:09:01.236Z,14.5
2022-10-31T09:10:00.811Z,14.6
2022-10-31T09:11:01.427Z,14.5
2022-10-31T09:12:01.020Z,14.5
2022-10-31T09:13:01.643Z,14.6
2022-10-31T09:14:01.251Z,14.6
2022-10-31T09:15:00.821Z,14.6
2022-10-31T09:16:01.408Z,14.6
2022-10-31T09:17:00.980Z,14.6
2022-10-31T09:18:01.849Z,14.7
2022-10-31T09:19:01.213Z,14.7
2022-10-31T09:20:00.813Z,14.8
2022-10-31T09:21:01.393Z,14.9
2022-10-31T09:22:00.968Z,14.8
2022-10-31T09:23:01.551Z,14.9
2022-10-31T09:24:01.129Z,15
2022-10-31T09:25:01.705Z,15.1
2022-10-31T09:26:01.294Z,15.1
2022-10-31T09:27:00.895Z,15.1
2022-10-31T09:28:01.951Z,15.2
2022-10-31T09:29:00.838Z,15.1
2022-10-31T09:30:01.428Z,15.2
2022-10-31T09:31:01.032Z,15.2
2022-10-31T09:32:01.580Z,15.2
2022-10-31T09:33:01.155Z,15.2
2022-10-31T09:34:00.730Z,15.3
2022-10-31T09:35:01.478Z,15.3
2022-10-31T09:36:00.980Z,15.3
2022-10-31T09:37:01.555Z,15.5
2022-10-31T09:38:01.497Z,15.5
2022-10-31T09:39:01.325Z,15.6
2022-10-31T09:40:00.900Z,15.6
2022-10-31T09:41:01.474Z,15.7
2022-10-31T09:42:01.047Z,15.8
2022-10-31T09:43:01.643Z,15.8
2022-10-31T09:44:01.232Z,15.8
2022-10-31T09:45:00.804Z,15.8
2022-10-31T09:46:01.377Z,15.9
2022-10-31T09:47:00.951Z,15.9
2022-10-31T09:48:02.039Z,15.8
2022-10-31T09:49:00.863Z,15.8
2022-10-31T09:50:01.490Z,15.9
2022-10-31T09:51:01.096Z,15.9
2022-10-31T09:52:01.703Z,15.9
2022-10-31T09:53:01.621Z,16
2022-10-31T09:54:00.929Z,16.1
2022-10-31T09:55:01.498Z,16
2022-10-31T09:56:01.074Z,16
2022-10-31T09:57:01.654Z,16
2022-10-31T09:58:01.250Z,16.1
2022-10-31T09:59:00.847Z,16.1
2022-10-31T10:00:01.409Z,16.2
2022-10-31T10:01:01.024Z,16.2
2022-10-31T10:02:01.640Z,16.2
2022-10-31T10:03:01.508Z,16.3
2022-10-31T10:04:01.334Z,16.3
2022-10-31T10:05:00.907Z,16.4
2022-10-31T10:06:01.480Z,16.4
2022-10-31T10:07:01.646Z,16.5
2022-10-31T10:08:01.239Z,16.6
2022-10-31T10:09:00.819Z,16.6
2022-10-31T10:10:01.413Z,16.7
2022-10-31T10:11:00.984Z,16.8
2022-10-31T10:12:01.557Z,16.8
2022-10-31T10:13:02.233Z,16.7
2022-10-31T10:14:01.682Z,16.7
2022-10-31T10:15:01.295Z,16.6
2022-10-31T10:16:00.869Z,16.6
2022-10-31T10:17:01.442Z,16.6
2022-10-31T10:18:01.014Z,16.6
2022-10-31T10:19:01.589Z,16.6
2022-10-31T10:20:01.181Z,16.7
2022-10-31T10:21:00.746Z,16.6
2022-10-31T10:22:01.321Z,16.6
2022-10-31T10:23:01.090Z,16.7
2022-10-31T10:24:01.496Z,16.7
2022-10-31T10:25:01.084Z,16.7
2022-10-31T10:26:01.659Z,16.7
2022-10-31T10:27:01.235Z,16.8
2022-10-31T10:28:00.971Z,16.8
2022-10-31T10:29:01.394Z,16.8
2022-10-31T10:30:00.988Z,16.9
2022-10-31T10:31:01.569Z,16.8
2022-10-31T10:32:01.154Z,16.9
2022-10-31T10:33:00.740Z,16.9
2022-10-31T10:34:01.311Z,17
2022-10-31T10:35:00.904Z,17.1
2022-10-31T10:36:01.462Z,17.1
2022-10-31T10:37:01.041Z,17
2022-10-31T10:38:01.804Z,17
2022-10-31T10:39:01.272Z,16.9
2022-10-31T10:40:00.860Z,16.9
2022-10-31T10:41:01.417Z,17
2022-10-31T10:42:01.009Z,17.1
2022-10-31T10:43:01.581Z,17.1
2022-10-31T10:44:01.154Z,17.2
2022-10-31T10:45:01.744Z,17.2
2022-10-31T10:46:01.315Z,17.2
2022-10-31T10:47:00.912Z,17.2
2022-10-31T10:48:01.832Z,17.1
2022-10-31T10:49:01.128Z,17.2
2022-10-31T10:50:01.719Z,17.1
2022-10-31T10:51:01.293Z,17.1
2022-10-31T10:53:01.426Z,17.3
2022-10-31T10:54:03.128Z,17.4
2022-10-31T10:55:01.560Z,17.3
2022-10-31T10:56:01.135Z,17.4
2022-10-31T10:57:01.728Z,17.3
2022-10-31T10:58:01.614Z,17.4
2022-10-31T10:59:00.941Z,17.5
2022-10-31T11:00:01.515Z,17.5
2022-10-31T11:01:01.158Z,17.6
2022-10-31T11:02:01.689Z,17.6
2022-10-31T11:03:01.738Z,17.4
2022-10-31T11:04:01.585Z,17.4
2022-10-31T11:05:01.163Z,17.4
2022-10-31T11:06:00.741Z,17.4
2022-10-31T11:07:01.329Z,17.4
2022-10-31T11:08:00.907Z,17.4
2022-10-31T11:09:01.495Z,17.4
2022-10-31T11:10:01.070Z,17.5
2022-10-31T11:11:01.647Z,17.5
2022-10-31T11:12:01.222Z,17.5
2022-10-31T11:13:01.208Z,17.5
2022-10-31T11:14:00.999Z,17.5
2022-10-31T11:15:01.576Z,17.5
2022-10-31T11:16:01.150Z,17.5
2022-10-31T11:17:01.730Z,17.6
2022-10-31T11:18:01.330Z,17.6
2022-10-31T11:19:00.937Z,17.7
2022-10-31T11:20:01.495Z,17.6
2022-10-31T11:21:01.069Z,17.6
2022-10-31T11:22:01.645Z,17.8
2022-10-31T11:23:01.241Z,17.8
2022-10-31T11:24:00.799Z,17.7
2022-10-31T11:25:01.371Z,17.8
2022-10-31T11:26:00.943Z,17.7
2022-10-31T11:27:01.516Z,17.7
2022-10-31T11:28:01.109Z,17.7
2022-10-31T11:29:01.724Z,17.8
2022-10-31T11:30:01.296Z,17.7
2022-10-31T11:31:00.886Z,17.8
2022-10-31T11:32:01.459Z,17.8
2022-10-31T11:33:01.291Z,17.9
2022-10-31T11:34:01.636Z,17.8
2022-10-31T11:35:01.239Z,17.8
2022-10-31T11:36:00.817Z,17.8
2022-10-31T11:37:01.393Z,17.9
2022-10-31T11:38:01.396Z,18
2022-10-31T11:39:01.164Z,18
2022-10-31T11:40:00.738Z,17.9
2022-10-31T11:41:01.328Z,18
2022-10-31T11:42:03.809Z,18
2022-10-31T11:43:01.439Z,18.1
2022-10-31T11:44:01.013Z,18
2022-10-31T11:45:01.587Z,18.1
2022-10-31T11:46:01.182Z,18.3
2022-10-31T11:47:00.747Z,18.3
2022-10-31T11:48:01.730Z,18.3
2022-10-31T11:49:00.978Z,18.3
2022-10-31T11:50:01.551Z,18.3
2022-10-31T11:51:01.170Z,18.4
2022-10-31T11:52:01.703Z,18.4
2022-10-31T11:53:01.285Z,18.5
2022-10-31T11:54:02.653Z,18.5
2022-10-31T11:55:01.401Z,18.5
2022-10-31T11:56:00.996Z,18.5
2022-10-31T11:57:01.561Z,18.5
2022-10-31T11:58:01.461Z,18.5
2022-10-31T11:59:01.722Z,18.5
2022-10-31T12:00:01.307Z,18.5
2022-10-31T12:01:00.906Z,18.4
2022-10-31T12:02:01.562Z,18.5
2022-10-31T12:03:01.402Z,18.5
2022-10-31T12:04:01.222Z,18.5
2022-10-31T12:05:00.798Z,18.5
2022-10-31T12:06:01.392Z,18.5
2022-10-31T12:07:01.564Z,18.6
2022-10-31T12:08:03.424Z,18.7
2022-10-31T12:09:01.694Z,18.8
2022-10-31T12:10:01.267Z,18.7
2022-10-31T12:11:00.859Z,18.7
2022-10-31T12:12:01.428Z,18.6
2022-10-31T12:13:01.231Z,18.7
2022-10-31T12:14:03.968Z,18.6
2022-10-31T12:15:01.128Z,18.5
2022-10-31T12:16:01.717Z,18.5
2022-10-31T12:17:01.310Z,18.4
2022-10-31T12:18:00.887Z,18.5
2022-10-31T12:19:01.463Z,18.5
2022-10-31T12:20:01.044Z,18.6
2022-10-31T12:21:01.641Z,18.6
2022-10-31T12:22:01.222Z,18.7
2022-10-31T12:23:01.142Z,18.7
2022-10-31T12:24:01.381Z,18.8
2022-10-31T12:25:00.956Z,18.7
2022-10-31T12:26:01.553Z,18.5
2022-10-31T12:27:01.143Z,18.5
2022-10-31T12:28:01.713Z,18.6
2022-10-31T12:29:01.290Z,18.6
2022-10-31T12:30:00.902Z,18.6
2022-10-31T12:31:01.465Z,18.7
2022-10-31T12:32:01.056Z,18.8
2022-10-31T12:33:01.912Z,18.8
2022-10-31T12:34:01.284Z,18.8
2022-10-31T12:35:00.858Z,18.8
2022-10-31T12:36:01.455Z,18.9
2022-10-31T12:37:01.040Z,18.9
2022-10-31T12:38:01.907Z,18.9
2022-10-31T12:39:01.286Z,18.9
2022-10-31T12:40:00.852Z,18.9
2022-10-31T12:41:01.444Z,19
2022-10-31T12:42:01.017Z,19.1
2022-10-31T12:43:01.978Z,19.2
2022-10-31T12:44:00.811Z,19.1
2022-10-31T12:45:01.386Z,19.3
2022-10-31T12:46:00.975Z,19.2
2022-10-31T12:47:01.578Z,19.3
2022-10-31T12:48:01.154Z,19.2
2022-10-31T12:49:01.737Z,19.3
2022-10-31T12:50:01.313Z,19.3
2022-10-31T12:51:00.892Z,19.4
2022-10-31T12:52:01.477Z,19.3
2022-10-31T12:53:01.327Z,19.4
2022-10-31T12:54:01.623Z,19.3
2022-10-31T12:55:01.218Z,19.5
2022-10-31T12:56:00.781Z,19.5
2022-10-31T12:57:01.357Z,19.5
2022-10-31T12:58:01.314Z,19.5
2022-10-31T12:59:01.046Z,19.5
2022-10-31T13:00:01.619Z,19.5
2022-10-31T13:01:01.790Z,19.6
2022-10-31T13:02:01.521Z,19.5
2022-10-31T13:03:01.002Z,19.5
2022-10-31T13:04:01.585Z,19.4
2022-10-31T13:05:01.157Z,19.5
2022-10-31T13:06:01.728Z,19.6
2022-10-31T13:07:01.301Z,19.6
2022-10-31T13:08:01.178Z,19.7
2022-10-31T13:09:01.046Z,19.6
2022-10-31T13:10:01.619Z,19.6
2022-10-31T13:12:01.307Z,19.5
2022-10-31T13:13:01.099Z,19.5
2022-10-31T13:14:01.468Z,19.4
2022-10-31T13:15:01.054Z,19.6
2022-10-31T13:16:01.625Z,19.5
2022-10-31T13:17:01.203Z,19.5
2022-10-31T13:18:00.788Z,19.5
2022-10-31T13:19:01.383Z,19.5
2022-10-31T13:20:00.980Z,19.5
2022-10-31T13:21:01.548Z,19.6
2022-10-31T13:22:01.122Z,19.6
2022-10-31T13:23:02.079Z,19.6